sensor_id;sensor_type;location;lat;lon;timestamp;P1;durP1;ratioP1;P2;durP2;ratioP2
1360;SDS011;674;45.552;-122.600;2024-03-02T00:02:06;104.45;;;49.97;;
1360;SDS011;674;45.552;-122.600;2024-03-02T00:04:35;80.97;;;39.13;;
1360;SDS011;674;45.552;-122.600;2024-03-02T00:07:04;102.63;;;47.83;;
1360;SDS011;674;45.552;-122.600;2024-03-02T00:09:34;101.57;;;47.72;;
1360;SDS011;674;45.552;-122.600;2024-03-02T00:12:04;102.88;;;49.65;;
1360;SDS011;674;45.552;-122.600;2024-03-02T00:14:33;100.28;;;47.08;;
1360;SDS011;674;45.552;-122.600;2024-03-02T00:17:01;99.47;;;47.85;;
1360;SDS011;674;45.552;-122.600;2024-03-02T00:19:30;103.50;;;49.45;;
1360;SDS011;674;45.552;-122.600;2024-03-02T00:22:00;85.50;;;40.78;;
1360;SDS011;674;45.552;-122.600;2024-03-02T00:24:32;102.38;;;48.47;;
1360;SDS011;674;45.552;-122.600;2024-03-02T00:27:03;105.47;;;50.30;;
1360;SDS011;674;45.552;-122.600;2024-03-02T00:29:33;103.90;;;49.90;;
1360;SDS011;674;45.552;-122.600;2024-03-02T00:32:03;102.40;;;48.33;;
1360;SDS011;674;45.552;-122.600;2024-03-02T00:34:34;104.72;;;51.03;;
1360;SDS011;674;45.552;-122.600;2024-03-02T00:37:03;101.47;;;49.13;;
1360;SDS011;674;45.552;-122.600;2024-03-02T00:39:31;112.28;;;54.72;;
1360;SDS011;674;45.552;-122.600;2024-03-02T00:42:00;89.45;;;43.28;;
1360;SDS011;674;45.552;-122.600;2024-03-02T00:44:28;103.00;;;49.30;;
1360;SDS011;674;45.552;-122.600;2024-03-02T00:47:02;103.82;;;49.67;;
1360;SDS011;674;45.552;-122.600;2024-03-02T00:49:31;100.63;;;47.58;;
1360;SDS011;674;45.552;-122.600;2024-03-02T00:52:01;101.57;;;48.67;;
1360;SDS011;674;45.552;-122.600;2024-03-02T00:54:30;100.20;;;47.25;;
1360;SDS011;674;45.552;-122.600;2024-03-02T00:56:59;79.22;;;39.08;;
1360;SDS011;674;45.552;-122.600;2024-03-02T00:59:27;100.80;;;48.03;;
1360;SDS011;674;45.552;-122.600;2024-03-02T01:01:57;77.85;;;38.25;;
1360;SDS011;674;45.552;-122.600;2024-03-02T01:04:25;82.22;;;39.35;;
1360;SDS011;674;45.552;-122.600;2024-03-02T01:06:53;99.05;;;48.60;;
1360;SDS011;674;45.552;-122.600;2024-03-02T01:09:22;76.03;;;36.70;;
1360;SDS011;674;45.552;-122.600;2024-03-02T01:11:50;85.28;;;42.03;;
1360;SDS011;674;45.552;-122.600;2024-03-02T01:14:19;83.95;;;41.85;;
1360;SDS011;674;45.552;-122.600;2024-03-02T01:16:47;99.15;;;50.85;;
1360;SDS011;674;45.552;-122.600;2024-03-02T01:19:16;96.55;;;47.30;;
1360;SDS011;674;45.552;-122.600;2024-03-02T01:21:45;100.53;;;47.42;;
1360;SDS011;674;45.552;-122.600;2024-03-02T01:24:13;101.05;;;48.03;;
1360;SDS011;674;45.552;-122.600;2024-03-02T01:26:42;100.70;;;47.42;;
1360;SDS011;674;45.552;-122.600;2024-03-02T01:29:10;112.63;;;63.92;;
1360;SDS011;674;45.552;-122.600;2024-03-02T01:31:39;98.97;;;47.00;;
1360;SDS011;674;45.552;-122.600;2024-03-02T01:34:09;77.05;;;37.75;;
1360;SDS011;674;45.552;-122.600;2024-03-02T01:36:38;105.45;;;57.35;;
1360;SDS011;674;45.552;-122.600;2024-03-02T01:39:06;102.07;;;52.35;;
1360;SDS011;674;45.552;-122.600;2024-03-02T01:41:36;101.40;;;47.35;;
1360;SDS011;674;45.552;-122.600;2024-03-02T01:44:05;79.82;;;34.17;;
1360;SDS011;674;45.552;-122.600;2024-03-02T01:46:34;98.32;;;41.90;;
1360;SDS011;674;45.552;-122.600;2024-03-02T01:49:03;99.38;;;43.53;;
1360;SDS011;674;45.552;-122.600;2024-03-02T01:51:31;104.53;;;50.50;;
1360;SDS011;674;45.552;-122.600;2024-03-02T01:54:00;103.00;;;49.13;;
1360;SDS011;674;45.552;-122.600;2024-03-02T01:56:28;106.78;;;52.03;;
1360;SDS011;674;45.552;-122.600;2024-03-02T01:58:57;109.40;;;53.70;;
1360;SDS011;674;45.552;-122.600;2024-03-02T02:01:25;105.38;;;47.38;;
1360;SDS011;674;45.552;-122.600;2024-03-02T02:03:54;109.28;;;52.47;;
1360;SDS011;674;45.552;-122.600;2024-03-02T02:06:23;104.18;;;46.70;;
1360;SDS011;674;45.552;-122.600;2024-03-02T02:08:51;105.68;;;48.50;;
1360;SDS011;674;45.552;-122.600;2024-03-02T02:11:20;104.30;;;48.40;;
1360;SDS011;674;45.552;-122.600;2024-03-02T02:13:48;108.65;;;49.78;;
1360;SDS011;674;45.552;-122.600;2024-03-02T02:16:17;107.50;;;48.20;;
1360;SDS011;674;45.552;-122.600;2024-03-02T02:18:45;106.07;;;50.15;;
1360;SDS011;674;45.552;-122.600;2024-03-02T02:21:14;102.45;;;47.50;;
1360;SDS011;674;45.552;-122.600;2024-03-02T02:23:42;89.53;;;43.53;;
1360;SDS011;674;45.552;-122.600;2024-03-02T02:26:15;98.35;;;46.65;;
1360;SDS011;674;45.552;-122.600;2024-03-02T02:28:44;99.88;;;47.40;;
1360;SDS011;674;45.552;-122.600;2024-03-02T02:31:14;103.90;;;49.60;;
1360;SDS011;674;45.552;-122.600;2024-03-02T02:33:43;101.63;;;48.33;;
1360;SDS011;674;45.552;-122.600;2024-03-02T02:36:11;99.70;;;47.35;;
1360;SDS011;674;45.552;-122.600;2024-03-02T02:38:41;100.28;;;47.70;;
1360;SDS011;674;45.552;-122.600;2024-03-02T02:41:12;102.63;;;47.63;;
1360;SDS011;674;45.552;-122.600;2024-03-02T02:43:40;90.10;;;43.80;;
1360;SDS011;674;45.552;-122.600;2024-03-02T02:46:09;103.90;;;48.65;;
1360;SDS011;674;45.552;-122.600;2024-03-02T02:48:37;110.32;;;55.15;;
1360;SDS011;674;45.552;-122.600;2024-03-02T02:51:06;97.47;;;46.30;;
1360;SDS011;674;45.552;-122.600;2024-03-02T02:53:34;104.90;;;50.47;;
1360;SDS011;674;45.552;-122.600;2024-03-02T02:56:07;101.93;;;47.65;;
1360;SDS011;674;45.552;-122.600;2024-03-02T02:58:35;101.97;;;47.25;;
1360;SDS011;674;45.552;-122.600;2024-03-02T03:01:04;78.47;;;37.13;;
1360;SDS011;674;45.552;-122.600;2024-03-02T03:03:32;101.07;;;47.13;;
1360;SDS011;674;45.552;-122.600;2024-03-02T03:06:01;100.88;;;47.92;;
1360;SDS011;674;45.552;-122.600;2024-03-02T03:08:29;98.72;;;46.10;;
1360;SDS011;674;45.552;-122.600;2024-03-02T03:10:58;99.68;;;46.03;;
1360;SDS011;674;45.552;-122.600;2024-03-02T03:13:26;106.28;;;48.97;;
1360;SDS011;674;45.552;-122.600;2024-03-02T03:15:55;92.13;;;41.03;;
1360;SDS011;674;45.552;-122.600;2024-03-02T03:18:24;105.78;;;46.38;;
1360;SDS011;674;45.552;-122.600;2024-03-02T03:20:52;108.93;;;49.25;;
1360;SDS011;674;45.552;-122.600;2024-03-02T03:23:21;103.88;;;42.88;;
1360;SDS011;674;45.552;-122.600;2024-03-02T03:25:49;99.97;;;39.38;;
1360;SDS011;674;45.552;-122.600;2024-03-02T03:28:18;112.05;;;50.05;;
1360;SDS011;674;45.552;-122.600;2024-03-02T03:30:46;156.70;;;88.55;;
1360;SDS011;674;45.552;-122.600;2024-03-02T03:33:14;303.13;;;159.93;;
1360;SDS011;674;45.552;-122.600;2024-03-02T03:35:43;250.20;;;92.35;;
1360;SDS011;674;45.552;-122.600;2024-03-02T03:38:11;262.70;;;91.32;;
1360;SDS011;674;45.552;-122.600;2024-03-02T03:40:40;201.20;;;74.18;;
1360;SDS011;674;45.552;-122.600;2024-03-02T03:43:09;235.45;;;86.25;;
1360;SDS011;674;45.552;-122.600;2024-03-02T03:45:37;142.82;;;55.63;;
1360;SDS011;674;45.552;-122.600;2024-03-02T03:48:06;190.60;;;68.10;;
1360;SDS011;674;45.552;-122.600;2024-03-02T03:50:34;112.57;;;44.28;;
1360;SDS011;674;45.552;-122.600;2024-03-02T03:53:03;133.60;;;54.10;;
1360;SDS011;674;45.552;-122.600;2024-03-02T03:55:31;131.70;;;50.13;;
1360;SDS011;674;45.552;-122.600;2024-03-02T03:57:59;132.63;;;54.60;;
1360;SDS011;674;45.552;-122.600;2024-03-02T04:00:28;129.60;;;53.17;;
1360;SDS011;674;45.552;-122.600;2024-03-02T04:02:56;147.27;;;75.20;;
1360;SDS011;674;45.552;-122.600;2024-03-02T04:05:25;132.93;;;53.00;;
1360;SDS011;674;45.552;-122.600;2024-03-02T04:07:54;137.20;;;51.97;;
1360;SDS011;674;45.552;-122.600;2024-03-02T04:10:23;128.23;;;58.58;;
1360;SDS011;674;45.552;-122.600;2024-03-02T04:12:52;127.82;;;53.15;;
1360;SDS011;674;45.552;-122.600;2024-03-02T04:15:20;126.57;;;53.15;;
1360;SDS011;674;45.552;-122.600;2024-03-02T04:17:50;122.68;;;51.55;;
1360;SDS011;674;45.552;-122.600;2024-03-02T04:20:19;118.97;;;52.10;;
1360;SDS011;674;45.552;-122.600;2024-03-02T04:22:47;111.30;;;44.20;;
1360;SDS011;674;45.552;-122.600;2024-03-02T04:25:16;117.22;;;47.83;;
1360;SDS011;674;45.552;-122.600;2024-03-02T04:27:44;125.53;;;54.15;;
1360;SDS011;674;45.552;-122.600;2024-03-02T04:30:12;118.57;;;51.78;;
1360;SDS011;674;45.552;-122.600;2024-03-02T04:32:41;109.38;;;41.50;;
1360;SDS011;674;45.552;-122.600;2024-03-02T04:35:13;110.35;;;44.65;;
1360;SDS011;674;45.552;-122.600;2024-03-02T04:37:42;108.65;;;45.25;;
1360;SDS011;674;45.552;-122.600;2024-03-02T04:40:11;112.65;;;49.50;;
1360;SDS011;674;45.552;-122.600;2024-03-02T04:42:39;111.68;;;49.33;;
1360;SDS011;674;45.552;-122.600;2024-03-02T04:45:08;108.15;;;51.47;;
1360;SDS011;674;45.552;-122.600;2024-03-02T04:47:37;127.45;;;56.03;;
1360;SDS011;674;45.552;-122.600;2024-03-02T04:50:05;78.03;;;39.10;;
1360;SDS011;674;45.552;-122.600;2024-03-02T04:52:35;94.85;;;47.03;;
1360;SDS011;674;45.552;-122.600;2024-03-02T04:55:03;105.40;;;49.10;;
1360;SDS011;674;45.552;-122.600;2024-03-02T04:57:44;102.35;;;48.17;;
1360;SDS011;674;45.552;-122.600;2024-03-02T05:00:13;124.07;;;53.42;;
1360;SDS011;674;45.552;-122.600;2024-03-02T05:02:42;115.53;;;52.90;;
1360;SDS011;674;45.552;-122.600;2024-03-02T05:05:10;114.68;;;51.95;;
1360;SDS011;674;45.552;-122.600;2024-03-02T05:07:39;113.20;;;49.20;;
1360;SDS011;674;45.552;-122.600;2024-03-02T05:10:09;113.10;;;50.20;;
1360;SDS011;674;45.552;-122.600;2024-03-02T05:12:39;116.85;;;52.70;;
1360;SDS011;674;45.552;-122.600;2024-03-02T05:15:11;109.95;;;49.67;;
1360;SDS011;674;45.552;-122.600;2024-03-02T05:17:41;109.95;;;49.85;;
1360;SDS011;674;45.552;-122.600;2024-03-02T05:20:10;114.30;;;50.10;;
1360;SDS011;674;45.552;-122.600;2024-03-02T05:22:39;125.80;;;54.88;;
1360;SDS011;674;45.552;-122.600;2024-03-02T05:25:07;110.60;;;50.55;;
1360;SDS011;674;45.552;-122.600;2024-03-02T05:27:39;105.65;;;49.45;;
1360;SDS011;674;45.552;-122.600;2024-03-02T05:30:08;114.63;;;56.03;;
1360;SDS011;674;45.552;-122.600;2024-03-02T05:32:37;108.68;;;49.78;;
1360;SDS011;674;45.552;-122.600;2024-03-02T05:35:05;109.32;;;50.25;;
1360;SDS011;674;45.552;-122.600;2024-03-02T05:37:35;110.80;;;50.17;;
1360;SDS011;674;45.552;-122.600;2024-03-02T05:40:03;96.22;;;44.95;;
1360;SDS011;674;45.552;-122.600;2024-03-02T05:42:33;111.88;;;52.72;;
1360;SDS011;674;45.552;-122.600;2024-03-02T05:45:01;109.32;;;50.40;;
1360;SDS011;674;45.552;-122.600;2024-03-02T05:47:30;87.28;;;39.08;;
1360;SDS011;674;45.552;-122.600;2024-03-02T05:50:00;107.75;;;49.85;;
1360;SDS011;674;45.552;-122.600;2024-03-02T05:52:29;94.38;;;42.92;;
1360;SDS011;674;45.552;-122.600;2024-03-02T05:54:57;106.53;;;46.72;;
1360;SDS011;674;45.552;-122.600;2024-03-02T05:57:26;107.50;;;48.67;;
1360;SDS011;674;45.552;-122.600;2024-03-02T06:00:14;110.72;;;50.70;;
1360;SDS011;674;45.552;-122.600;2024-03-02T06:02:44;107.93;;;50.00;;
1360;SDS011;674;45.552;-122.600;2024-03-02T06:05:13;115.00;;;51.83;;
1360;SDS011;674;45.552;-122.600;2024-03-02T06:07:42;112.47;;;46.72;;
1360;SDS011;674;45.552;-122.600;2024-03-02T06:10:11;109.63;;;46.13;;
1360;SDS011;674;45.552;-122.600;2024-03-02T06:12:40;110.30;;;47.05;;
1360;SDS011;674;45.552;-122.600;2024-03-02T06:15:09;105.43;;;41.00;;
1360;SDS011;674;45.552;-122.600;2024-03-02T06:17:40;105.53;;;41.97;;
1360;SDS011;674;45.552;-122.600;2024-03-02T06:20:09;100.85;;;38.92;;
1360;SDS011;674;45.552;-122.600;2024-03-02T06:22:38;95.70;;;40.33;;
1360;SDS011;674;45.552;-122.600;2024-03-02T06:25:06;110.65;;;50.88;;
1360;SDS011;674;45.552;-122.600;2024-03-02T06:27:35;108.85;;;41.97;;
1360;SDS011;674;45.552;-122.600;2024-03-02T06:30:04;108.78;;;45.72;;
1360;SDS011;674;45.552;-122.600;2024-03-02T06:32:33;109.55;;;49.60;;
1360;SDS011;674;45.552;-122.600;2024-03-02T06:35:02;110.80;;;52.13;;
1360;SDS011;674;45.552;-122.600;2024-03-02T06:37:32;116.20;;;51.35;;
1360;SDS011;674;45.552;-122.600;2024-03-02T06:40:00;117.55;;;48.35;;
1360;SDS011;674;45.552;-122.600;2024-03-02T06:42:29;120.13;;;51.88;;
1360;SDS011;674;45.552;-122.600;2024-03-02T06:45:01;122.30;;;54.05;;
1360;SDS011;674;45.552;-122.600;2024-03-02T06:47:30;122.05;;;54.10;;
1360;SDS011;674;45.552;-122.600;2024-03-02T06:49:59;125.13;;;54.22;;
1360;SDS011;674;45.552;-122.600;2024-03-02T06:52:28;130.55;;;55.95;;
1360;SDS011;674;45.552;-122.600;2024-03-02T06:54:56;116.32;;;45.50;;
1360;SDS011;674;45.552;-122.600;2024-03-02T06:57:25;126.80;;;52.92;;
1360;SDS011;674;45.552;-122.600;2024-03-02T06:59:54;123.68;;;53.00;;
1360;SDS011;674;45.552;-122.600;2024-03-02T07:02:26;118.10;;;51.47;;
1360;SDS011;674;45.552;-122.600;2024-03-02T07:04:54;116.53;;;49.83;;
1360;SDS011;674;45.552;-122.600;2024-03-02T07:07:22;125.55;;;52.67;;
1360;SDS011;674;45.552;-122.600;2024-03-02T07:09:51;127.25;;;52.88;;
1360;SDS011;674;45.552;-122.600;2024-03-02T07:12:20;125.13;;;49.78;;
1360;SDS011;674;45.552;-122.600;2024-03-02T07:14:48;119.72;;;45.97;;
1360;SDS011;674;45.552;-122.600;2024-03-02T07:17:32;118.63;;;50.90;;
1360;SDS011;674;45.552;-122.600;2024-03-02T07:20:00;118.35;;;50.38;;
1360;SDS011;674;45.552;-122.600;2024-03-02T07:22:29;118.88;;;54.40;;
1360;SDS011;674;45.552;-122.600;2024-03-02T07:24:57;123.00;;;50.17;;
1360;SDS011;674;45.552;-122.600;2024-03-02T07:27:26;125.55;;;53.20;;
1360;SDS011;674;45.552;-122.600;2024-03-02T07:29:55;116.97;;;51.35;;
1360;SDS011;674;45.552;-122.600;2024-03-02T07:32:23;118.22;;;51.20;;
1360;SDS011;674;45.552;-122.600;2024-03-02T07:34:51;118.28;;;51.03;;
1360;SDS011;674;45.552;-122.600;2024-03-02T07:37:20;117.55;;;50.67;;
1360;SDS011;674;45.552;-122.600;2024-03-02T07:39:49;116.03;;;50.38;;
1360;SDS011;674;45.552;-122.600;2024-03-02T07:42:18;117.68;;;50.20;;
1360;SDS011;674;45.552;-122.600;2024-03-02T07:44:46;110.72;;;48.10;;
1360;SDS011;674;45.552;-122.600;2024-03-02T07:47:14;117.88;;;50.65;;
1360;SDS011;674;45.552;-122.600;2024-03-02T07:49:44;117.88;;;50.17;;
1360;SDS011;674;45.552;-122.600;2024-03-02T07:52:13;118.93;;;52.42;;
1360;SDS011;674;45.552;-122.600;2024-03-02T07:54:42;116.00;;;50.90;;
1360;SDS011;674;45.552;-122.600;2024-03-02T07:57:10;112.68;;;49.28;;
1360;SDS011;674;45.552;-122.600;2024-03-02T07:59:38;111.10;;;49.15;;
1360;SDS011;674;45.552;-122.600;2024-03-02T08:02:07;113.25;;;51.30;;
1360;SDS011;674;45.552;-122.600;2024-03-02T08:04:36;111.85;;;49.30;;
1360;SDS011;674;45.552;-122.600;2024-03-02T08:07:04;118.97;;;51.88;;
1360;SDS011;674;45.552;-122.600;2024-03-02T08:09:33;118.72;;;50.85;;
1360;SDS011;674;45.552;-122.600;2024-03-02T08:12:02;114.00;;;50.83;;
1360;SDS011;674;45.552;-122.600;2024-03-02T08:14:30;115.85;;;50.63;;
1360;SDS011;674;45.552;-122.600;2024-03-02T08:16:59;112.07;;;50.08;;
1360;SDS011;674;45.552;-122.600;2024-03-02T08:19:28;108.13;;;49.00;;
1360;SDS011;674;45.552;-122.600;2024-03-02T08:21:57;114.03;;;56.53;;
1360;SDS011;674;45.552;-122.600;2024-03-02T08:24:26;107.90;;;49.17;;
1360;SDS011;674;45.552;-122.600;2024-03-02T08:26:55;110.25;;;51.40;;
1360;SDS011;674;45.552;-122.600;2024-03-02T08:29:23;105.03;;;47.60;;
1360;SDS011;674;45.552;-122.600;2024-03-02T08:31:52;108.90;;;49.53;;
1360;SDS011;674;45.552;-122.600;2024-03-02T08:34:21;108.70;;;49.25;;
1360;SDS011;674;45.552;-122.600;2024-03-02T08:36:49;108.30;;;53.00;;
1360;SDS011;674;45.552;-122.600;2024-03-02T08:39:18;103.53;;;47.90;;
1360;SDS011;674;45.552;-122.600;2024-03-02T08:41:48;105.47;;;49.85;;
1360;SDS011;674;45.552;-122.600;2024-03-02T08:44:16;104.47;;;47.95;;
1360;SDS011;674;45.552;-122.600;2024-03-02T08:46:45;102.90;;;47.58;;
1360;SDS011;674;45.552;-122.600;2024-03-02T08:49:13;99.78;;;46.33;;
1360;SDS011;674;45.552;-122.600;2024-03-02T08:51:42;100.32;;;47.42;;
1360;SDS011;674;45.552;-122.600;2024-03-02T08:54:10;84.03;;;40.47;;
1360;SDS011;674;45.552;-122.600;2024-03-02T08:56:38;84.57;;;40.03;;
1360;SDS011;674;45.552;-122.600;2024-03-02T08:59:07;104.50;;;47.83;;
1360;SDS011;674;45.552;-122.600;2024-03-02T09:01:35;116.50;;;52.85;;
1360;SDS011;674;45.552;-122.600;2024-03-02T09:04:08;99.25;;;46.35;;
1360;SDS011;674;45.552;-122.600;2024-03-02T09:06:37;105.65;;;48.95;;
1360;SDS011;674;45.552;-122.600;2024-03-02T09:09:06;88.63;;;42.63;;
1360;SDS011;674;45.552;-122.600;2024-03-02T09:11:34;90.03;;;43.33;;
1360;SDS011;674;45.552;-122.600;2024-03-02T09:14:03;84.82;;;41.63;;
1360;SDS011;674;45.552;-122.600;2024-03-02T09:16:32;82.78;;;40.78;;
1360;SDS011;674;45.552;-122.600;2024-03-02T09:19:00;86.25;;;40.65;;
1360;SDS011;674;45.552;-122.600;2024-03-02T09:21:29;100.03;;;46.13;;
1360;SDS011;674;45.552;-122.600;2024-03-02T09:23:57;108.55;;;50.70;;
1360;SDS011;674;45.552;-122.600;2024-03-02T09:26:26;91.35;;;42.50;;
1360;SDS011;674;45.552;-122.600;2024-03-02T09:28:55;112.68;;;50.70;;
1360;SDS011;674;45.552;-122.600;2024-03-02T09:31:23;103.43;;;47.83;;
1360;SDS011;674;45.552;-122.600;2024-03-02T09:33:51;76.60;;;36.90;;
1360;SDS011;674;45.552;-122.600;2024-03-02T09:36:21;90.13;;;43.40;;
1360;SDS011;674;45.552;-122.600;2024-03-02T09:38:50;77.43;;;37.95;;
1360;SDS011;674;45.552;-122.600;2024-03-02T09:41:19;105.57;;;52.17;;
1360;SDS011;674;45.552;-122.600;2024-03-02T09:43:47;84.90;;;39.78;;
1360;SDS011;674;45.552;-122.600;2024-03-02T09:46:16;104.22;;;49.58;;
1360;SDS011;674;45.552;-122.600;2024-03-02T09:48:45;107.05;;;50.65;;
1360;SDS011;674;45.552;-122.600;2024-03-02T09:51:14;106.45;;;50.28;;
1360;SDS011;674;45.552;-122.600;2024-03-02T09:53:42;103.97;;;48.30;;
1360;SDS011;674;45.552;-122.600;2024-03-02T09:56:11;112.03;;;52.28;;
1360;SDS011;674;45.552;-122.600;2024-03-02T09:58:39;115.20;;;50.90;;
1360;SDS011;674;45.552;-122.600;2024-03-02T10:01:08;102.43;;;49.38;;
1360;SDS011;674;45.552;-122.600;2024-03-02T10:03:40;102.95;;;52.38;;
1360;SDS011;674;45.552;-122.600;2024-03-02T10:06:19;87.05;;;41.33;;
1360;SDS011;674;45.552;-122.600;2024-03-02T10:08:49;93.43;;;43.47;;
1360;SDS011;674;45.552;-122.600;2024-03-02T10:11:28;85.70;;;41.38;;
1360;SDS011;674;45.552;-122.600;2024-03-02T10:14:05;103.40;;;50.45;;
1360;SDS011;674;45.552;-122.600;2024-03-02T10:16:39;100.88;;;47.80;;
1360;SDS011;674;45.552;-122.600;2024-03-02T10:19:18;97.22;;;46.80;;
1360;SDS011;674;45.552;-122.600;2024-03-02T10:21:49;104.20;;;51.50;;
1360;SDS011;674;45.552;-122.600;2024-03-02T10:24:19;92.57;;;43.95;;
1360;SDS011;674;45.552;-122.600;2024-03-02T10:26:49;86.88;;;41.60;;
1360;SDS011;674;45.552;-122.600;2024-03-02T10:29:18;94.78;;;45.45;;
1360;SDS011;674;45.552;-122.600;2024-03-02T10:31:47;96.97;;;45.97;;
1360;SDS011;674;45.552;-122.600;2024-03-02T10:34:15;101.38;;;48.42;;
1360;SDS011;674;45.552;-122.600;2024-03-02T10:36:43;88.30;;;41.60;;
1360;SDS011;674;45.552;-122.600;2024-03-02T10:39:15;73.82;;;35.58;;
1360;SDS011;674;45.552;-122.600;2024-03-02T10:41:44;83.70;;;42.40;;
1360;SDS011;674;45.552;-122.600;2024-03-02T10:44:16;106.95;;;50.03;;
1360;SDS011;674;45.552;-122.600;2024-03-02T10:46:45;83.95;;;40.55;;
1360;SDS011;674;45.552;-122.600;2024-03-02T10:49:17;104.18;;;48.42;;
1360;SDS011;674;45.552;-122.600;2024-03-02T10:51:45;104.10;;;49.70;;
1360;SDS011;674;45.552;-122.600;2024-03-02T10:54:14;93.95;;;44.53;;
1360;SDS011;674;45.552;-122.600;2024-03-02T10:56:44;91.75;;;43.15;;
1360;SDS011;674;45.552;-122.600;2024-03-02T10:59:16;106.20;;;49.53;;
1360;SDS011;674;45.552;-122.600;2024-03-02T11:01:48;105.22;;;49.13;;
1360;SDS011;674;45.552;-122.600;2024-03-02T11:04:18;98.63;;;46.75;;
1360;SDS011;674;45.552;-122.600;2024-03-02T11:06:49;99.57;;;47.60;;
1360;SDS011;674;45.552;-122.600;2024-03-02T11:09:20;100.35;;;48.00;;
1360;SDS011;674;45.552;-122.600;2024-03-02T11:11:54;104.43;;;52.50;;
1360;SDS011;674;45.552;-122.600;2024-03-02T11:14:31;99.25;;;47.30;;
1360;SDS011;674;45.552;-122.600;2024-03-02T11:17:02;98.70;;;47.28;;
1360;SDS011;674;45.552;-122.600;2024-03-02T11:19:32;99.80;;;46.50;;
1360;SDS011;674;45.552;-122.600;2024-03-02T11:22:02;102.28;;;49.55;;
1360;SDS011;674;45.552;-122.600;2024-03-02T11:24:31;87.38;;;41.75;;
1360;SDS011;674;45.552;-122.600;2024-03-02T11:27:07;90.00;;;43.13;;
1360;SDS011;674;45.552;-122.600;2024-03-02T11:32:14;108.45;;;50.50;;
1360;SDS011;674;45.552;-122.600;2024-03-02T11:34:49;112.03;;;52.35;;
1360;SDS011;674;45.552;-122.600;2024-03-02T11:37:18;106.38;;;49.00;;
1360;SDS011;674;45.552;-122.600;2024-03-02T11:39:50;101.90;;;47.20;;
1360;SDS011;674;45.552;-122.600;2024-03-02T11:42:19;100.68;;;46.63;;
1360;SDS011;674;45.552;-122.600;2024-03-02T11:44:48;102.68;;;47.67;;
1360;SDS011;674;45.552;-122.600;2024-03-02T11:47:17;108.75;;;50.38;;
1360;SDS011;674;45.552;-122.600;2024-03-02T11:52:17;88.63;;;42.08;;
1360;SDS011;674;45.552;-122.600;2024-03-02T11:54:46;119.85;;;52.78;;
1360;SDS011;674;45.552;-122.600;2024-03-02T11:57:19;108.40;;;48.72;;
1360;SDS011;674;45.552;-122.600;2024-03-02T11:59:51;123.00;;;53.50;;
1360;SDS011;674;45.552;-122.600;2024-03-02T12:02:20;111.82;;;51.90;;
1360;SDS011;674;45.552;-122.600;2024-03-02T12:04:49;110.97;;;51.67;;
1360;SDS011;674;45.552;-122.600;2024-03-02T12:07:18;114.55;;;50.60;;
1360;SDS011;674;45.552;-122.600;2024-03-02T12:09:49;112.85;;;50.20;;
1360;SDS011;674;45.552;-122.600;2024-03-02T12:12:30;111.90;;;49.33;;
1360;SDS011;674;45.552;-122.600;2024-03-02T12:14:59;113.82;;;50.20;;
1360;SDS011;674;45.552;-122.600;2024-03-02T12:17:28;114.68;;;51.35;;
1360;SDS011;674;45.552;-122.600;2024-03-02T12:19:57;109.80;;;49.67;;
1360;SDS011;674;45.552;-122.600;2024-03-02T12:22:25;117.53;;;58.70;;
1360;SDS011;674;45.552;-122.600;2024-03-02T12:24:54;113.40;;;52.53;;
1360;SDS011;674;45.552;-122.600;2024-03-02T12:27:22;111.28;;;50.20;;
1360;SDS011;674;45.552;-122.600;2024-03-02T12:29:51;116.35;;;52.20;;
1360;SDS011;674;45.552;-122.600;2024-03-02T12:32:19;114.32;;;50.55;;
1360;SDS011;674;45.552;-122.600;2024-03-02T12:34:48;117.80;;;52.78;;
1360;SDS011;674;45.552;-122.600;2024-03-02T12:37:18;120.10;;;55.58;;
1360;SDS011;674;45.552;-122.600;2024-03-02T12:39:46;87.22;;;39.65;;
1360;SDS011;674;45.552;-122.600;2024-03-02T12:42:15;98.40;;;43.40;;
1360;SDS011;674;45.552;-122.600;2024-03-02T12:44:43;90.70;;;40.65;;
1360;SDS011;674;45.552;-122.600;2024-03-02T12:47:12;118.88;;;51.78;;
1360;SDS011;674;45.552;-122.600;2024-03-02T12:49:40;117.70;;;52.55;;
1360;SDS011;674;45.552;-122.600;2024-03-02T12:52:11;117.97;;;50.65;;
1360;SDS011;674;45.552;-122.600;2024-03-02T12:54:40;112.30;;;49.90;;
1360;SDS011;674;45.552;-122.600;2024-03-02T12:57:09;115.30;;;52.70;;
1360;SDS011;674;45.552;-122.600;2024-03-02T12:59:37;113.43;;;51.40;;
1360;SDS011;674;45.552;-122.600;2024-03-02T13:02:06;99.85;;;46.25;;
1360;SDS011;674;45.552;-122.600;2024-03-02T13:04:34;115.45;;;50.88;;
1360;SDS011;674;45.552;-122.600;2024-03-02T13:07:02;117.25;;;51.38;;
1360;SDS011;674;45.552;-122.600;2024-03-02T13:09:31;115.03;;;50.53;;
1360;SDS011;674;45.552;-122.600;2024-03-02T13:12:01;113.07;;;51.53;;
1360;SDS011;674;45.552;-122.600;2024-03-02T13:14:35;96.40;;;45.90;;
1360;SDS011;674;45.552;-122.600;2024-03-02T13:17:03;103.03;;;47.03;;
1360;SDS011;674;45.552;-122.600;2024-03-02T13:19:32;114.18;;;51.22;;
1360;SDS011;674;45.552;-122.600;2024-03-02T13:22:01;117.22;;;53.10;;
1360;SDS011;674;45.552;-122.600;2024-03-02T13:24:31;114.13;;;51.45;;
1360;SDS011;674;45.552;-122.600;2024-03-02T13:27:00;87.22;;;40.83;;
1360;SDS011;674;45.552;-122.600;2024-03-02T13:29:31;108.00;;;48.58;;
1360;SDS011;674;45.552;-122.600;2024-03-02T13:31:59;94.55;;;43.40;;
1360;SDS011;674;45.552;-122.600;2024-03-02T13:34:28;106.70;;;48.38;;
1360;SDS011;674;45.552;-122.600;2024-03-02T13:36:56;91.70;;;42.78;;
1360;SDS011;674;45.552;-122.600;2024-03-02T13:39:25;97.10;;;45.65;;
1360;SDS011;674;45.552;-122.600;2024-03-02T13:41:53;95.63;;;44.00;;
1360;SDS011;674;45.552;-122.600;2024-03-02T13:44:30;108.63;;;49.97;;
1360;SDS011;674;45.552;-122.600;2024-03-02T13:46:59;120.50;;;55.22;;
1360;SDS011;674;45.552;-122.600;2024-03-02T13:49:28;106.03;;;47.65;;
1360;SDS011;674;45.552;-122.600;2024-03-02T13:52:03;109.20;;;49.17;;
1360;SDS011;674;45.552;-122.600;2024-03-02T13:54:41;114.95;;;51.30;;
1360;SDS011;674;45.552;-122.600;2024-03-02T13:57:11;112.68;;;50.15;;
1360;SDS011;674;45.552;-122.600;2024-03-02T13:59:40;108.13;;;49.35;;
1360;SDS011;674;45.552;-122.600;2024-03-02T14:02:10;98.57;;;45.17;;
1360;SDS011;674;45.552;-122.600;2024-03-02T14:04:39;106.47;;;48.00;;
1360;SDS011;674;45.552;-122.600;2024-03-02T14:07:08;92.18;;;42.17;;
1360;SDS011;674;45.552;-122.600;2024-03-02T14:09:38;106.15;;;47.83;;
1360;SDS011;674;45.552;-122.600;2024-03-02T14:12:06;82.15;;;37.90;;
1360;SDS011;674;45.552;-122.600;2024-03-02T14:14:36;94.05;;;44.03;;
1360;SDS011;674;45.552;-122.600;2024-03-02T14:17:05;106.95;;;48.75;;
1360;SDS011;674;45.552;-122.600;2024-03-02T14:19:33;108.95;;;49.25;;
1360;SDS011;674;45.552;-122.600;2024-03-02T14:22:03;113.75;;;51.67;;
1360;SDS011;674;45.552;-122.600;2024-03-02T14:24:32;113.38;;;49.50;;
1360;SDS011;674;45.552;-122.600;2024-03-02T14:27:01;115.13;;;52.60;;
1360;SDS011;674;45.552;-122.600;2024-03-02T14:29:50;115.03;;;50.78;;